Погода Лучаена 2 недели

Подляское воеводство, Польша

18 - 31 июля
  • 18июля
    Сегодня
    +13°
    +26°
    Небольшая облачность
    ВремяПогодаТемператураВлажностьДавлениеВетер, м/сВероятность осадков
    02:00Облачно с прояснениями+18°C69 %754 мм1.2 м/с6 %
    05:00Практически безоблачно+17°C81 %754 мм1.0 м/с25 %
    08:00Ясно и безоблачно+21°C71 %755 мм1.8 м/с2 %
    11:00Практически безоблачно+24°C48 %754 мм2.9 м/с7 %
    14:00Небольшая облачность+25°C43 %754 мм3.0 м/с3 %
    17:00Облачно с прояснениями+25°C44 %754 мм2.5 м/с2 %
    20:00Практически безоблачно+22°C53 %754 мм1.4 м/с2 %
    23:00Облачно с прояснениями+17°C70 %755 мм1.2 м/с2 %
  • 19июля
    Пятница
    +12°
    +25°
    Ясно и безоблачно
    ВремяПогодаТемператураВлажностьДавлениеВетер, м/сВероятность осадков
    02:00Ясно и безоблачно+15°C82 %755 мм1.1 м/с2 %
    05:00Облачно с прояснениями+14°C92 %755 мм1.1 м/с2 %
    08:00Ясно и безоблачно+18°C74 %755 мм1.8 м/с2 %
    11:00Ясно и безоблачно+22°C54 %754 мм2.7 м/с2 %
    14:00Ясно и безоблачно+25°C48 %754 мм3.0 м/с2 %
    17:00Ясно и безоблачно+25°C45 %753 мм2.7 м/с2 %
    20:00Ясно и безоблачно+21°C57 %752 мм1.4 м/с2 %
    23:00Ясно и безоблачно+17°C69 %752 мм1.2 м/с2 %
  • 20июля
    Суббота
    +13°
    +26°
    Ясно и безоблачно
    ВремяПогодаТемператураВлажностьДавлениеВетер, м/сВероятность осадков
    02:00Ясно и безоблачно+14°C84 %752 мм0.7 м/с2 %
    05:00Ясно и безоблачно+13°C89 %751 мм0.8 м/с2 %
    08:00Ясно и безоблачно+17°C74 %751 мм1.4 м/с2 %
    11:00Практически безоблачно+22°C58 %751 мм2.1 м/с2 %
    14:00Ясно и безоблачно+25°C47 %750 мм2.1 м/с2 %
    17:00Ясно и безоблачно+25°C44 %749 мм2.1 м/с2 %
    20:00Ясно и безоблачно+22°C60 %748 мм0.9 м/с2 %
    23:00Ясно и безоблачно+17°C70 %748 мм0.9 м/с2 %
  • 21июля
    Воскресенье
    +14°
    +28°
    Облачно с прояснениями
    ВремяПогодаТемператураВлажностьДавлениеВетер, м/сВероятность осадков
    02:00Ясно и безоблачно+16°C78 %748 мм0.7 м/с2 %
    05:00Ясно и безоблачно+14°C89 %747 мм0.7 м/с2 %
    08:00Ясно и безоблачно+20°C67 %747 мм1.0 м/с2 %
    11:00Ясно и безоблачно+24°C45 %748 мм1.9 м/с2 %
    14:00Облачно с прояснениями+27°C35 %747 мм1.9 м/с6 %
    17:00Практически безоблачно+27°C35 %746 мм2.0 м/с2 %
    20:00Практически безоблачно+24°C60 %746 мм1.0 м/с2 %
    23:00Практически безоблачно+18°C56 %746 мм1.0 м/с2 %
  • 22июля
    Понедельник
    +14°
    +29°
    Практически безоблачно
    ВремяПогодаТемператураВлажностьДавлениеВетер, м/сВероятность осадков
    02:00Ясно и безоблачно+16°C72 %746 мм0.7 м/с2 %
    05:00Ясно и безоблачно+15°C80 %746 мм0.5 м/с2 %
    08:00Ясно и безоблачно+21°C67 %747 мм0.9 м/с2 %
    11:00Практически безоблачно+26°C43 %747 мм1.8 м/с4 %
    14:00Практически безоблачно+28°C37 %746 мм2.0 м/с11 %
    17:00Ясно и безоблачно+26°C36 %746 мм2.5 м/с17 %
    20:00Ясно и безоблачно+22°C57 %746 мм1.3 м/с14 %
    23:00Ясно и безоблачно+18°C62 %747 мм0.6 м/с17 %
Мы используем cookies
Соглашаюсь